sensor_id;sensor_type;location;lat;lon;timestamp;temperature;humidity
11784;DHT22;5949;40.386;18.150;2022-08-19T00:01:33;28.60;99.90
11784;DHT22;5949;40.386;18.150;2022-08-19T00:04:04;28.70;99.90
11784;DHT22;5949;40.386;18.150;2022-08-19T00:06:33;28.60;99.90
11784;DHT22;5949;40.386;18.150;2022-08-19T00:09:03;28.70;99.90
11784;DHT22;5949;40.386;18.150;2022-08-19T00:11:31;28.60;99.90
11784;DHT22;5949;40.386;18.150;2022-08-19T00:14:00;28.50;99.90
11784;DHT22;5949;40.386;18.150;2022-08-19T00:16:28;28.60;99.90
11784;DHT22;5949;40.386;18.150;2022-08-19T00:18:56;28.40;99.90
11784;DHT22;5949;40.386;18.150;2022-08-19T00:21:24;28.50;99.90
11784;DHT22;5949;40.386;18.150;2022-08-19T00:23:52;28.50;99.90
11784;DHT22;5949;40.386;18.150;2022-08-19T00:26:21;28.50;99.90
11784;DHT22;5949;40.386;18.150;2022-08-19T00:28:49;28.40;99.90
11784;DHT22;5949;40.386;18.150;2022-08-19T00:31:17;28.40;99.90
11784;DHT22;5949;40.386;18.150;2022-08-19T00:33:44;28.50;99.90
11784;DHT22;5949;40.386;18.150;2022-08-19T00:36:12;28.50;99.90
11784;DHT22;5949;40.386;18.150;2022-08-19T00:38:40;28.50;99.90
11784;DHT22;5949;40.386;18.150;2022-08-19T00:41:12;28.50;99.90
11784;DHT22;5949;40.386;18.150;2022-08-19T00:43:42;28.40;99.90
11784;DHT22;5949;40.386;18.150;2022-08-19T00:46:09;28.40;99.90
11784;DHT22;5949;40.386;18.150;2022-08-19T00:48:37;28.40;99.90
11784;DHT22;5949;40.386;18.150;2022-08-19T00:51:05;28.30;99.90
11784;DHT22;5949;40.386;18.150;2022-08-19T00:53:33;28.40;99.90
11784;DHT22;5949;40.386;18.150;2022-08-19T00:56:02;28.40;99.90
11784;DHT22;5949;40.386;18.150;2022-08-19T00:58:34;28.40;99.90
11784;DHT22;5949;40.386;18.150;2022-08-19T01:01:04;28.30;99.90
11784;DHT22;5949;40.386;18.150;2022-08-19T01:03:33;28.30;99.90
11784;DHT22;5949;40.386;18.150;2022-08-19T01:06:01;28.20;99.90
11784;DHT22;5949;40.386;18.150;2022-08-19T01:08:28;28.30;99.90
11784;DHT22;5949;40.386;18.150;2022-08-19T01:10:58;28.20;99.90
11784;DHT22;5949;40.386;18.150;2022-08-19T01:13:29;28.30;99.90
11784;DHT22;5949;40.386;18.150;2022-08-19T01:16:00;28.30;99.90
11784;DHT22;5949;40.386;18.150;2022-08-19T01:18:30;28.20;99.90
11784;DHT22;5949;40.386;18.150;2022-08-19T01:21:15;28.10;99.90
11784;DHT22;5949;40.386;18.150;2022-08-19T01:23:45;28.20;99.90
11784;DHT22;5949;40.386;18.150;2022-08-19T01:26:15;28.20;99.90
11784;DHT22;5949;40.386;18.150;2022-08-19T01:28:44;28.10;99.90
11784;DHT22;5949;40.386;18.150;2022-08-19T01:31:16;28.10;99.90
11784;DHT22;5949;40.386;18.150;2022-08-19T01:33:44;28.30;99.90
11784;DHT22;5949;40.386;18.150;2022-08-19T01:36:14;28.30;99.90
11784;DHT22;5949;40.386;18.150;2022-08-19T01:38:44;28.40;99.90
11784;DHT22;5949;40.386;18.150;2022-08-19T01:41:12;28.40;99.90
11784;DHT22;5949;40.386;18.150;2022-08-19T01:43:40;28.40;99.90
11784;DHT22;5949;40.386;18.150;2022-08-19T01:46:07;28.30;99.90
11784;DHT22;5949;40.386;18.150;2022-08-19T01:48:36;28.40;99.90
11784;DHT22;5949;40.386;18.150;2022-08-19T01:51:05;28.40;99.90
11784;DHT22;5949;40.386;18.150;2022-08-19T01:53:33;28.40;99.90
11784;DHT22;5949;40.386;18.150;2022-08-19T01:56:03;28.40;99.90
11784;DHT22;5949;40.386;18.150;2022-08-19T01:58:33;28.40;99.90
11784;DHT22;5949;40.386;18.150;2022-08-19T02:01:03;28.30;99.90
11784;DHT22;5949;40.386;18.150;2022-08-19T02:03:30;28.30;99.90
11784;DHT22;5949;40.386;18.150;2022-08-19T02:06:00;28.30;99.90
11784;DHT22;5949;40.386;18.150;2022-08-19T02:08:29;28.30;99.90
11784;DHT22;5949;40.386;18.150;2022-08-19T02:10:57;28.30;99.90
11784;DHT22;5949;40.386;18.150;2022-08-19T02:13:26;28.20;99.90
11784;DHT22;5949;40.386;18.150;2022-08-19T02:15:54;28.30;99.90
11784;DHT22;5949;40.386;18.150;2022-08-19T02:18:21;28.20;99.90
11784;DHT22;5949;40.386;18.150;2022-08-19T02:20:49;28.20;99.90
11784;DHT22;5949;40.386;18.150;2022-08-19T02:23:17;28.20;99.90
11784;DHT22;5949;40.386;18.150;2022-08-19T02:25:46;28.10;99.90
11784;DHT22;5949;40.386;18.150;2022-08-19T02:28:14;28.20;99.90
11784;DHT22;5949;40.386;18.150;2022-08-19T02:30:43;28.20;99.90
11784;DHT22;5949;40.386;18.150;2022-08-19T02:33:11;28.20;99.90
11784;DHT22;5949;40.386;18.150;2022-08-19T02:35:41;28.20;99.90
11784;DHT22;5949;40.386;18.150;2022-08-19T02:38:09;28.10;99.90
11784;DHT22;5949;40.386;18.150;2022-08-19T02:40:56;28.00;99.90
11784;DHT22;5949;40.386;18.150;2022-08-19T02:43:25;28.00;99.90
11784;DHT22;5949;40.386;18.150;2022-08-19T02:45:55;28.00;99.90
11784;DHT22;5949;40.386;18.150;2022-08-19T02:48:24;28.00;99.90
11784;DHT22;5949;40.386;18.150;2022-08-19T02:50:53;28.00;99.90
11784;DHT22;5949;40.386;18.150;2022-08-19T02:53:22;27.90;99.90
11784;DHT22;5949;40.386;18.150;2022-08-19T02:55:50;27.90;99.90
11784;DHT22;5949;40.386;18.150;2022-08-19T02:58:19;27.90;99.90
11784;DHT22;5949;40.386;18.150;2022-08-19T03:00:49;27.80;99.90
11784;DHT22;5949;40.386;18.150;2022-08-19T03:03:18;27.80;99.90
11784;DHT22;5949;40.386;18.150;2022-08-19T03:05:47;27.90;99.90
11784;DHT22;5949;40.386;18.150;2022-08-19T03:08:15;27.80;99.90
11784;DHT22;5949;40.386;18.150;2022-08-19T03:10:44;27.80;99.90
11784;DHT22;5949;40.386;18.150;2022-08-19T03:13:13;27.90;99.90
11784;DHT22;5949;40.386;18.150;2022-08-19T03:15:42;27.80;99.90
11784;DHT22;5949;40.386;18.150;2022-08-19T03:18:11;27.80;99.90
11784;DHT22;5949;40.386;18.150;2022-08-19T03:20:45;27.70;99.90
11784;DHT22;5949;40.386;18.150;2022-08-19T03:23:14;27.70;99.90
11784;DHT22;5949;40.386;18.150;2022-08-19T03:25:44;27.80;99.90
11784;DHT22;5949;40.386;18.150;2022-08-19T03:28:13;27.80;99.90
11784;DHT22;5949;40.386;18.150;2022-08-19T03:30:43;27.90;99.90
11784;DHT22;5949;40.386;18.150;2022-08-19T03:33:22;27.90;99.90
11784;DHT22;5949;40.386;18.150;2022-08-19T03:36:08;28.00;99.90
11784;DHT22;5949;40.386;18.150;2022-08-19T03:38:37;27.90;99.90
11784;DHT22;5949;40.386;18.150;2022-08-19T03:41:06;27.90;99.90
11784;DHT22;5949;40.386;18.150;2022-08-19T03:43:35;27.90;99.90
11784;DHT22;5949;40.386;18.150;2022-08-19T03:46:05;27.90;99.90
11784;DHT22;5949;40.386;18.150;2022-08-19T03:48:35;28.00;99.90
11784;DHT22;5949;40.386;18.150;2022-08-19T03:51:05;28.00;99.90
11784;DHT22;5949;40.386;18.150;2022-08-19T03:53:34;27.90;99.90
11784;DHT22;5949;40.386;18.150;2022-08-19T03:56:02;27.80;99.90
11784;DHT22;5949;40.386;18.150;2022-08-19T03:58:30;27.70;99.90
11784;DHT22;5949;40.386;18.150;2022-08-19T04:00:58;27.70;99.90
11784;DHT22;5949;40.386;18.150;2022-08-19T04:03:26;27.70;99.90
11784;DHT22;5949;40.386;18.150;2022-08-19T04:05:54;27.70;99.90
11784;DHT22;5949;40.386;18.150;2022-08-19T04:08:22;27.60;99.90
11784;DHT22;5949;40.386;18.150;2022-08-19T04:10:51;27.60;99.90
11784;DHT22;5949;40.386;18.150;2022-08-19T04:13:19;27.50;99.90
11784;DHT22;5949;40.386;18.150;2022-08-19T04:15:47;27.60;99.90
11784;DHT22;5949;40.386;18.150;2022-08-19T04:18:14;27.50;99.90
11784;DHT22;5949;40.386;18.150;2022-08-19T04:20:43;27.70;99.90
11784;DHT22;5949;40.386;18.150;2022-08-19T04:23:12;27.70;99.90
11784;DHT22;5949;40.386;18.150;2022-08-19T04:25:43;27.70;99.90
11784;DHT22;5949;40.386;18.150;2022-08-19T04:28:12;27.80;99.90
11784;DHT22;5949;40.386;18.150;2022-08-19T04:30:41;27.90;99.90
11784;DHT22;5949;40.386;18.150;2022-08-19T04:33:10;28.00;99.90
11784;DHT22;5949;40.386;18.150;2022-08-19T04:35:40;28.00;99.90
11784;DHT22;5949;40.386;18.150;2022-08-19T04:38:08;27.90;99.90
11784;DHT22;5949;40.386;18.150;2022-08-19T04:40:42;27.90;99.90
11784;DHT22;5949;40.386;18.150;2022-08-19T04:43:27;27.90;99.90
11784;DHT22;5949;40.386;18.150;2022-08-19T04:45:54;27.90;99.90
11784;DHT22;5949;40.386;18.150;2022-08-19T04:48:22;27.90;99.90
11784;DHT22;5949;40.386;18.150;2022-08-19T04:50:53;27.90;99.90
11784;DHT22;5949;40.386;18.150;2022-08-19T04:53:24;28.10;99.90
11784;DHT22;5949;40.386;18.150;2022-08-19T04:55:56;28.10;99.90
11784;DHT22;5949;40.386;18.150;2022-08-19T04:58:26;28.10;99.90
11784;DHT22;5949;40.386;18.150;2022-08-19T05:00:54;28.10;99.90
11784;DHT22;5949;40.386;18.150;2022-08-19T05:03:21;28.10;99.90
11784;DHT22;5949;40.386;18.150;2022-08-19T05:05:49;28.30;99.90
11784;DHT22;5949;40.386;18.150;2022-08-19T05:08:18;28.10;99.90
11784;DHT22;5949;40.386;18.150;2022-08-19T05:10:48;28.10;99.90
11784;DHT22;5949;40.386;18.150;2022-08-19T05:13:19;28.30;99.90
11784;DHT22;5949;40.386;18.150;2022-08-19T05:15:54;28.30;99.90
11784;DHT22;5949;40.386;18.150;2022-08-19T05:18:22;28.50;99.90
11784;DHT22;5949;40.386;18.150;2022-08-19T05:21:07;28.60;99.90
11784;DHT22;5949;40.386;18.150;2022-08-19T05:24:01;28.80;99.90
11784;DHT22;5949;40.386;18.150;2022-08-19T05:26:29;28.90;99.90
11784;DHT22;5949;40.386;18.150;2022-08-19T05:28:58;29.10;99.90
11784;DHT22;5949;40.386;18.150;2022-08-19T05:31:25;29.00;99.90
11784;DHT22;5949;40.386;18.150;2022-08-19T05:33:53;29.20;99.90
11784;DHT22;5949;40.386;18.150;2022-08-19T05:36:21;29.30;99.90
11784;DHT22;5949;40.386;18.150;2022-08-19T05:38:49;29.50;99.90
11784;DHT22;5949;40.386;18.150;2022-08-19T05:41:18;29.60;99.90
11784;DHT22;5949;40.386;18.150;2022-08-19T05:43:46;29.70;99.90
11784;DHT22;5949;40.386;18.150;2022-08-19T05:46:19;29.80;99.90
11784;DHT22;5949;40.386;18.150;2022-08-19T05:48:47;29.90;99.90
11784;DHT22;5949;40.386;18.150;2022-08-19T05:51:14;30.00;99.90
11784;DHT22;5949;40.386;18.150;2022-08-19T05:53:43;30.00;99.90
11784;DHT22;5949;40.386;18.150;2022-08-19T05:56:13;30.20;99.90
11784;DHT22;5949;40.386;18.150;2022-08-19T05:58:42;30.10;99.90
11784;DHT22;5949;40.386;18.150;2022-08-19T06:01:13;30.30;99.90
11784;DHT22;5949;40.386;18.150;2022-08-19T06:03:42;30.50;99.90
11784;DHT22;5949;40.386;18.150;2022-08-19T06:06:12;30.80;99.90
11784;DHT22;5949;40.386;18.150;2022-08-19T06:08:39;31.10;99.90
11784;DHT22;5949;40.386;18.150;2022-08-19T06:11:14;31.20;99.90
11784;DHT22;5949;40.386;18.150;2022-08-19T06:13:42;31.40;99.90
11784;DHT22;5949;40.386;18.150;2022-08-19T06:16:10;31.40;99.90
11784;DHT22;5949;40.386;18.150;2022-08-19T06:18:38;31.30;99.90
11784;DHT22;5949;40.386;18.150;2022-08-19T06:21:07;31.50;99.90
11784;DHT22;5949;40.386;18.150;2022-08-19T06:23:35;31.70;99.90
11784;DHT22;5949;40.386;18.150;2022-08-19T06:26:02;31.50;99.90
11784;DHT22;5949;40.386;18.150;2022-08-19T06:28:30;31.60;99.90
11784;DHT22;5949;40.386;18.150;2022-08-19T06:30:58;31.60;99.90
11784;DHT22;5949;40.386;18.150;2022-08-19T06:33:27;31.60;99.90
11784;DHT22;5949;40.386;18.150;2022-08-19T06:35:55;31.80;99.90
11784;DHT22;5949;40.386;18.150;2022-08-19T06:38:24;31.90;99.90
11784;DHT22;5949;40.386;18.150;2022-08-19T06:41:00;32.10;99.90
11784;DHT22;5949;40.386;18.150;2022-08-19T06:43:28;31.90;99.90
11784;DHT22;5949;40.386;18.150;2022-08-19T06:45:55;31.60;99.90
11784;DHT22;5949;40.386;18.150;2022-08-19T06:48:25;31.90;99.90
11784;DHT22;5949;40.386;18.150;2022-08-19T06:50:52;31.70;99.90
11784;DHT22;5949;40.386;18.150;2022-08-19T06:53:20;32.00;99.90
11784;DHT22;5949;40.386;18.150;2022-08-19T06:55:49;31.90;99.90
11784;DHT22;5949;40.386;18.150;2022-08-19T06:58:26;32.20;99.90
11784;DHT22;5949;40.386;18.150;2022-08-19T07:00:54;32.60;99.90
11784;DHT22;5949;40.386;18.150;2022-08-19T07:03:23;32.80;99.90
11784;DHT22;5949;40.386;18.150;2022-08-19T07:05:51;33.00;99.90
11784;DHT22;5949;40.386;18.150;2022-08-19T07:08:18;33.10;99.90
11784;DHT22;5949;40.386;18.150;2022-08-19T07:10:46;33.00;99.90
11784;DHT22;5949;40.386;18.150;2022-08-19T07:13:16;33.40;99.90
11784;DHT22;5949;40.386;18.150;2022-08-19T07:15:45;33.30;99.90
11784;DHT22;5949;40.386;18.150;2022-08-19T07:18:13;33.50;99.90
11784;DHT22;5949;40.386;18.150;2022-08-19T07:20:40;33.70;99.90
11784;DHT22;5949;40.386;18.150;2022-08-19T07:23:08;33.90;99.90
11784;DHT22;5949;40.386;18.150;2022-08-19T07:25:36;34.00;99.90
11784;DHT22;5949;40.386;18.150;2022-08-19T07:28:04;34.20;99.90
11784;DHT22;5949;40.386;18.150;2022-08-19T07:30:36;34.00;99.90
11784;DHT22;5949;40.386;18.150;2022-08-19T07:33:04;34.00;99.90
11784;DHT22;5949;40.386;18.150;2022-08-19T07:35:32;33.90;99.90
11784;DHT22;5949;40.386;18.150;2022-08-19T07:38:00;34.10;99.90
11784;DHT22;5949;40.386;18.150;2022-08-19T07:40:30;34.20;99.90
11784;DHT22;5949;40.386;18.150;2022-08-19T07:42:58;34.00;99.90
11784;DHT22;5949;40.386;18.150;2022-08-19T07:45:25;34.30;99.90
11784;DHT22;5949;40.386;18.150;2022-08-19T07:47:55;34.50;99.90
11784;DHT22;5949;40.386;18.150;2022-08-19T07:50:23;34.40;99.90
11784;DHT22;5949;40.386;18.150;2022-08-19T07:52:50;34.30;99.90
11784;DHT22;5949;40.386;18.150;2022-08-19T07:55:24;34.60;99.90
11784;DHT22;5949;40.386;18.150;2022-08-19T07:57:51;34.50;99.90
11784;DHT22;5949;40.386;18.150;2022-08-19T08:00:19;34.60;99.90
11784;DHT22;5949;40.386;18.150;2022-08-19T08:02:47;34.40;99.90
11784;DHT22;5949;40.386;18.150;2022-08-19T08:05:16;34.60;99.90
11784;DHT22;5949;40.386;18.150;2022-08-19T08:08:00;34.60;99.90
11784;DHT22;5949;40.386;18.150;2022-08-19T08:10:45;34.80;99.90
11784;DHT22;5949;40.386;18.150;2022-08-19T08:13:13;34.70;99.90
11784;DHT22;5949;40.386;18.150;2022-08-19T08:15:40;34.80;99.90
11784;DHT22;5949;40.386;18.150;2022-08-19T08:18:10;35.00;99.90
11784;DHT22;5949;40.386;18.150;2022-08-19T08:20:39;35.20;99.90
11784;DHT22;5949;40.386;18.150;2022-08-19T08:23:07;35.20;99.90
11784;DHT22;5949;40.386;18.150;2022-08-19T08:25:52;35.20;99.90
11784;DHT22;5949;40.386;18.150;2022-08-19T08:28:20;35.00;99.90
11784;DHT22;5949;40.386;18.150;2022-08-19T08:30:49;35.20;99.90
11784;DHT22;5949;40.386;18.150;2022-08-19T08:33:18;35.20;99.90
11784;DHT22;5949;40.386;18.150;2022-08-19T08:35:48;35.00;99.90
11784;DHT22;5949;40.386;18.150;2022-08-19T08:38:15;35.20;99.90
11784;DHT22;5949;40.386;18.150;2022-08-19T08:40:47;35.40;99.90
11784;DHT22;5949;40.386;18.150;2022-08-19T08:43:23;34.90;99.90
11784;DHT22;5949;40.386;18.150;2022-08-19T08:45:55;34.50;99.90
11784;DHT22;5949;40.386;18.150;2022-08-19T08:48:32;34.80;99.90
11784;DHT22;5949;40.386;18.150;2022-08-19T08:51:05;34.50;99.90
11784;DHT22;5949;40.386;18.150;2022-08-19T08:53:35;33.80;99.90
11784;DHT22;5949;40.386;18.150;2022-08-19T08:56:04;34.00;99.90
11784;DHT22;5949;40.386;18.150;2022-08-19T08:58:41;34.10;99.90
11784;DHT22;5949;40.386;18.150;2022-08-19T09:01:10;34.20;99.90
11784;DHT22;5949;40.386;18.150;2022-08-19T09:03:42;34.20;99.90
11784;DHT22;5949;40.386;18.150;2022-08-19T09:06:18;34.20;99.90
11784;DHT22;5949;40.386;18.150;2022-08-19T09:08:51;34.10;99.90
11784;DHT22;5949;40.386;18.150;2022-08-19T09:11:24;34.10;99.90
11784;DHT22;5949;40.386;18.150;2022-08-19T09:14:10;34.30;99.90
11784;DHT22;5949;40.386;18.150;2022-08-19T09:16:41;34.20;99.90
11784;DHT22;5949;40.386;18.150;2022-08-19T09:19:09;34.50;99.90
11784;DHT22;5949;40.386;18.150;2022-08-19T09:21:39;34.50;99.90
11784;DHT22;5949;40.386;18.150;2022-08-19T09:24:06;34.60;99.90
11784;DHT22;5949;40.386;18.150;2022-08-19T09:26:34;34.90;99.90
11784;DHT22;5949;40.386;18.150;2022-08-19T09:29:02;34.90;99.90
11784;DHT22;5949;40.386;18.150;2022-08-19T09:31:31;35.00;99.90
11784;DHT22;5949;40.386;18.150;2022-08-19T09:33:59;34.90;99.90
11784;DHT22;5949;40.386;18.150;2022-08-19T09:36:29;34.90;99.90
11784;DHT22;5949;40.386;18.150;2022-08-19T09:39:00;34.80;99.90
11784;DHT22;5949;40.386;18.150;2022-08-19T09:41:28;35.20;99.90
11784;DHT22;5949;40.386;18.150;2022-08-19T09:43:56;35.10;99.90
11784;DHT22;5949;40.386;18.150;2022-08-19T09:46:27;34.70;99.90
11784;DHT22;5949;40.386;18.150;2022-08-19T09:48:56;34.80;99.90
11784;DHT22;5949;40.386;18.150;2022-08-19T09:51:25;35.00;99.90
11784;DHT22;5949;40.386;18.150;2022-08-19T09:53:54;34.80;99.90
11784;DHT22;5949;40.386;18.150;2022-08-19T09:56:24;34.80;99.90
11784;DHT22;5949;40.386;18.150;2022-08-19T09:58:51;35.10;99.90
11784;DHT22;5949;40.386;18.150;2022-08-19T10:01:21;35.30;99.90
11784;DHT22;5949;40.386;18.150;2022-08-19T10:03:50;35.60;99.90
11784;DHT22;5949;40.386;18.150;2022-08-19T10:06:19;35.50;99.90
11784;DHT22;5949;40.386;18.150;2022-08-19T10:08:47;35.50;99.90
11784;DHT22;5949;40.386;18.150;2022-08-19T10:11:15;35.60;99.90
11784;DHT22;5949;40.386;18.150;2022-08-19T10:13:44;35.60;99.90
11784;DHT22;5949;40.386;18.150;2022-08-19T10:16:14;35.70;99.90
11784;DHT22;5949;40.386;18.150;2022-08-19T10:18:43;35.50;99.90
11784;DHT22;5949;40.386;18.150;2022-08-19T10:21:13;35.50;99.90
11784;DHT22;5949;40.386;18.150;2022-08-19T10:23:43;35.60;99.90
11784;DHT22;5949;40.386;18.150;2022-08-19T10:26:13;35.90;99.90
11784;DHT22;5949;40.386;18.150;2022-08-19T10:28:41;36.00;99.90
11784;DHT22;5949;40.386;18.150;2022-08-19T10:31:12;35.90;99.90
11784;DHT22;5949;40.386;18.150;2022-08-19T10:33:40;35.90;99.90
11784;DHT22;5949;40.386;18.150;2022-08-19T10:36:11;36.00;99.90
11784;DHT22;5949;40.386;18.150;2022-08-19T10:38:41;35.90;99.90
11784;DHT22;5949;40.386;18.150;2022-08-19T10:41:12;36.10;99.90
11784;DHT22;5949;40.386;18.150;2022-08-19T10:43:40;36.20;99.90
11784;DHT22;5949;40.386;18.150;2022-08-19T10:46:10;35.90;99.90
11784;DHT22;5949;40.386;18.150;2022-08-19T10:48:38;36.00;99.90
11784;DHT22;5949;40.386;18.150;2022-08-19T10:51:06;35.90;99.90
11784;DHT22;5949;40.386;18.150;2022-08-19T10:53:51;36.00;99.90
11784;DHT22;5949;40.386;18.150;2022-08-19T10:56:19;36.10;99.90
11784;DHT22;5949;40.386;18.150;2022-08-19T10:59:12;36.10;98.50
11784;DHT22;5949;40.386;18.150;2022-08-19T11:01:43;36.20;97.60
11784;DHT22;5949;40.386;18.150;2022-08-19T11:04:11;36.20;99.60
11784;DHT22;5949;40.386;18.150;2022-08-19T11:06:40;36.30;99.90
11784;DHT22;5949;40.386;18.150;2022-08-19T11:09:09;35.80;99.90
11784;DHT22;5949;40.386;18.150;2022-08-19T11:11:38;35.90;99.90
11784;DHT22;5949;40.386;18.150;2022-08-19T11:14:07;35.80;99.90
11784;DHT22;5949;40.386;18.150;2022-08-19T11:16:35;35.70;99.90
11784;DHT22;5949;40.386;18.150;2022-08-19T11:19:07;35.70;99.90
11784;DHT22;5949;40.386;18.150;2022-08-19T11:21:37;35.80;99.90
11784;DHT22;5949;40.386;18.150;2022-08-19T11:24:08;35.80;99.60
11784;DHT22;5949;40.386;18.150;2022-08-19T11:26:37;35.60;99.70
11784;DHT22;5949;40.386;18.150;2022-08-19T11:29:07;35.50;98.60
11784;DHT22;5949;40.386;18.150;2022-08-19T11:31:38;35.60;97.50
11784;DHT22;5949;40.386;18.150;2022-08-19T11:34:12;35.80;96.80
11784;DHT22;5949;40.386;18.150;2022-08-19T11:36:41;36.00;97.10
11784;DHT22;5949;40.386;18.150;2022-08-19T11:39:11;36.00;97.10
11784;DHT22;5949;40.386;18.150;2022-08-19T11:41:39;36.00;97.60
11784;DHT22;5949;40.386;18.150;2022-08-19T11:44:07;36.20;96.70
11784;DHT22;5949;40.386;18.150;2022-08-19T11:46:36;36.00;96.70
11784;DHT22;5949;40.386;18.150;2022-08-19T11:49:05;36.10;96.20
11784;DHT22;5949;40.386;18.150;2022-08-19T11:51:35;36.30;96.20
11784;DHT22;5949;40.386;18.150;2022-08-19T11:54:04;36.50;95.10
11784;DHT22;5949;40.386;18.150;2022-08-19T11:56:32;36.40;94.80
11784;DHT22;5949;40.386;18.150;2022-08-19T11:59:00;36.70;94.20
11784;DHT22;5949;40.386;18.150;2022-08-19T12:01:29;36.90;93.00
11784;DHT22;5949;40.386;18.150;2022-08-19T12:03:57;36.70;91.90
11784;DHT22;5949;40.386;18.150;2022-08-19T12:06:27;36.60;92.30
11784;DHT22;5949;40.386;18.150;2022-08-19T12:08:57;36.50;92.10
11784;DHT22;5949;40.386;18.150;2022-08-19T12:11:25;36.50;91.80
11784;DHT22;5949;40.386;18.150;2022-08-19T12:13:53;36.70;91.70
11784;DHT22;5949;40.386;18.150;2022-08-19T12:16:23;36.90;91.20
11784;DHT22;5949;40.386;18.150;2022-08-19T12:18:52;37.20;91.40
11784;DHT22;5949;40.386;18.150;2022-08-19T12:21:22;37.40;90.00
11784;DHT22;5949;40.386;18.150;2022-08-19T12:23:56;36.70;99.90
11784;DHT22;5949;40.386;18.150;2022-08-19T12:26:25;36.30;99.90
11784;DHT22;5949;40.386;18.150;2022-08-19T12:28:54;35.30;99.90
11784;DHT22;5949;40.386;18.150;2022-08-19T12:31:21;35.10;99.90
11784;DHT22;5949;40.386;18.150;2022-08-19T12:33:49;35.10;99.90
11784;DHT22;5949;40.386;18.150;2022-08-19T12:36:18;34.80;99.90
11784;DHT22;5949;40.386;18.150;2022-08-19T12:38:46;34.70;99.90
11784;DHT22;5949;40.386;18.150;2022-08-19T12:41:16;34.80;99.90
11784;DHT22;5949;40.386;18.150;2022-08-19T12:43:44;34.90;99.90
11784;DHT22;5949;40.386;18.150;2022-08-19T12:46:14;34.90;99.90
11784;DHT22;5949;40.386;18.150;2022-08-19T12:48:41;34.80;99.90
11784;DHT22;5949;40.386;18.150;2022-08-19T12:51:12;34.80;99.90
11784;DHT22;5949;40.386;18.150;2022-08-19T12:53:40;34.80;99.90
11784;DHT22;5949;40.386;18.150;2022-08-19T12:56:10;34.80;99.90
11784;DHT22;5949;40.386;18.150;2022-08-19T12:58:42;34.70;99.90
11784;DHT22;5949;40.386;18.150;2022-08-19T13:01:11;34.80;99.90
11784;DHT22;5949;40.386;18.150;2022-08-19T13:03:39;34.80;99.90
11784;DHT22;5949;40.386;18.150;2022-08-19T13:06:07;34.80;99.90
11784;DHT22;5949;40.386;18.150;2022-08-19T13:08:35;34.90;99.90
11784;DHT22;5949;40.386;18.150;2022-08-19T13:11:09;35.00;99.90
11784;DHT22;5949;40.386;18.150;2022-08-19T13:13:38;35.10;99.90
11784;DHT22;5949;40.386;18.150;2022-08-19T13:16:09;35.00;99.90
11784;DHT22;5949;40.386;18.150;2022-08-19T13:18:38;35.10;99.90
11784;DHT22;5949;40.386;18.150;2022-08-19T13:21:07;35.10;99.90
11784;DHT22;5949;40.386;18.150;2022-08-19T13:23:35;35.10;99.90
11784;DHT22;5949;40.386;18.150;2022-08-19T13:26:05;35.10;99.90
11784;DHT22;5949;40.386;18.150;2022-08-19T13:28:33;35.10;99.90
11784;DHT22;5949;40.386;18.150;2022-08-19T13:31:18;35.00;99.90
11784;DHT22;5949;40.386;18.150;2022-08-19T13:34:03;34.90;99.90
11784;DHT22;5949;40.386;18.150;2022-08-19T13:36:31;34.80;99.90
11784;DHT22;5949;40.386;18.150;2022-08-19T13:38:59;34.80;99.90
11784;DHT22;5949;40.386;18.150;2022-08-19T13:41:27;34.60;99.90
11784;DHT22;5949;40.386;18.150;2022-08-19T13:43:55;34.70;99.90
11784;DHT22;5949;40.386;18.150;2022-08-19T13:46:24;34.70;99.90
11784;DHT22;5949;40.386;18.150;2022-08-19T13:48:53;34.60;99.90
11784;DHT22;5949;40.386;18.150;2022-08-19T13:51:21;34.60;99.90
11784;DHT22;5949;40.386;18.150;2022-08-19T13:53:49;34.70;99.90
11784;DHT22;5949;40.386;18.150;2022-08-19T13:56:18;34.70;99.90
11784;DHT22;5949;40.386;18.150;2022-08-19T13:58:46;34.70;99.90
11784;DHT22;5949;40.386;18.150;2022-08-19T14:01:19;34.80;99.90
11784;DHT22;5949;40.386;18.150;2022-08-19T14:03:49;34.70;99.90
11784;DHT22;5949;40.386;18.150;2022-08-19T14:06:17;34.70;99.90
11784;DHT22;5949;40.386;18.150;2022-08-19T14:08:44;34.60;99.90
11784;DHT22;5949;40.386;18.150;2022-08-19T14:11:12;34.40;99.90
11784;DHT22;5949;40.386;18.150;2022-08-19T14:13:40;34.20;99.90
11784;DHT22;5949;40.386;18.150;2022-08-19T14:16:09;34.00;99.90
11784;DHT22;5949;40.386;18.150;2022-08-19T14:18:37;34.00;99.90
11784;DHT22;5949;40.386;18.150;2022-08-19T14:21:07;33.90;99.90
11784;DHT22;5949;40.386;18.150;2022-08-19T14:23:35;34.00;99.90
11784;DHT22;5949;40.386;18.150;2022-08-19T14:26:04;33.80;99.90
11784;DHT22;5949;40.386;18.150;2022-08-19T14:28:31;33.50;99.90
11784;DHT22;5949;40.386;18.150;2022-08-19T14:30:59;33.50;99.90
11784;DHT22;5949;40.386;18.150;2022-08-19T14:33:27;33.50;99.90
11784;DHT22;5949;40.386;18.150;2022-08-19T14:35:54;33.40;99.90
11784;DHT22;5949;40.386;18.150;2022-08-19T14:38:23;33.50;99.90
11784;DHT22;5949;40.386;18.150;2022-08-19T14:40:51;33.50;99.90
11784;DHT22;5949;40.386;18.150;2022-08-19T14:43:19;33.40;99.90
11784;DHT22;5949;40.386;18.150;2022-08-19T14:45:47;33.50;99.90
11784;DHT22;5949;40.386;18.150;2022-08-19T14:48:15;33.30;99.90
11784;DHT22;5949;40.386;18.150;2022-08-19T14:50:43;33.40;99.90
11784;DHT22;5949;40.386;18.150;2022-08-19T14:53:10;33.30;99.90
11784;DHT22;5949;40.386;18.150;2022-08-19T14:55:41;33.30;99.90
11784;DHT22;5949;40.386;18.150;2022-08-19T14:58:08;33.10;99.90
11784;DHT22;5949;40.386;18.150;2022-08-19T15:00:36;33.30;99.90
11784;DHT22;5949;40.386;18.150;2022-08-19T15:03:04;33.10;99.90
11784;DHT22;5949;40.386;18.150;2022-08-19T15:05:31;33.10;99.90
11784;DHT22;5949;40.386;18.150;2022-08-19T15:08:03;33.00;99.90
11784;DHT22;5949;40.386;18.150;2022-08-19T15:10:30;33.10;99.90
11784;DHT22;5949;40.386;18.150;2022-08-19T15:12:59;32.80;99.90
11784;DHT22;5949;40.386;18.150;2022-08-19T15:15:27;33.00;99.90
11784;DHT22;5949;40.386;18.150;2022-08-19T15:17:55;33.00;99.90
11784;DHT22;5949;40.386;18.150;2022-08-19T15:20:28;32.90;99.90
11784;DHT22;5949;40.386;18.150;2022-08-19T15:22:56;33.00;99.90
11784;DHT22;5949;40.386;18.150;2022-08-19T15:25:24;33.00;99.90
11784;DHT22;5949;40.386;18.150;2022-08-19T15:27:52;33.00;99.90
11784;DHT22;5949;40.386;18.150;2022-08-19T15:30:24;33.30;99.90
11784;DHT22;5949;40.386;18.150;2022-08-19T15:32:51;33.40;99.90
11784;DHT22;5949;40.386;18.150;2022-08-19T15:35:21;33.50;99.90
11784;DHT22;5949;40.386;18.150;2022-08-19T15:37:50;33.50;99.90
11784;DHT22;5949;40.386;18.150;2022-08-19T15:40:19;33.40;99.90
11784;DHT22;5949;40.386;18.150;2022-08-19T15:42:47;33.30;99.90
11784;DHT22;5949;40.386;18.150;2022-08-19T15:45:16;33.30;99.90